Time;durP1;ratioP1;P1;durP2;ratioP2;P2;SDS_P1;SDS_P2;PMS_P1;PMS_P2;Temp;Humidity;BMP_temperature;BMP_pressure;BME280_temperature;BME280_humidity;BME280_pressure;Samples;Min_cycle;Max_cycle;Signal;HPM_P1;HPM_P2
2022/05/04 00:00:22;;;;;;;9.00;4.32;;;256.90;2252.80;;;;;;5051152;28;20392;-55
2022/05/04 00:02:48;;;;;;;5.95;3.65;;;256.80;2252.80;;;;;;5051128;28;20040;-55
2022/05/04 00:05:14;;;;;;;5.10;3.13;;;256.70;2252.80;;;;;;5051044;28;20033;-53
2022/05/04 00:07:40;;;;;;;7.00;3.03;;;256.80;2252.80;;;;;;5050794;28;20110;-56
2022/05/04 00:10:06;;;;;;;5.05;2.90;;;256.70;2252.80;;;;;;5051102;28;20021;-53
2022/05/04 00:12:33;;;;;;;5.20;2.90;;;256.80;2252.80;;;;;;5051018;28;20124;-55
2022/05/04 00:14:59;;;;;;;4.95;2.53;;;256.70;2252.80;;;;;;5051103;28;20485;-55
2022/05/04 00:17:24;;;;;;;6.57;3.10;;;256.60;2252.80;;;;;;5050612;28;20028;-53
2022/05/04 00:19:51;;;;;;;6.90;3.22;;;256.50;2252.80;;;;;;5050720;28;20112;-53
2022/05/04 00:22:21;;;;;;;6.35;3.38;;;256.60;2252.80;;;;;;5050625;28;20025;-54
2022/05/04 00:24:47;;;;;;;7.50;2.90;;;256.50;2252.80;;;;;;5051084;28;20430;-55
2022/05/04 00:27:15;;;;;;;5.10;3.45;;;256.40;2252.80;;;;;;5050691;28;20025;-54
2022/05/04 00:29:44;;;;;;;4.82;2.92;;;256.30;2252.80;;;;;;5050371;28;20032;-54
2022/05/04 00:32:15;;;;;;;3.97;2.97;;;256.30;2252.80;;;;;;5050454;28;20028;-53
2022/05/04 00:34:41;;;;;;;4.05;2.72;;;256.30;2252.80;;;;;;5050039;28;20013;-56
2022/05/04 00:37:07;;;;;;;3.53;2.22;;;256.30;2252.80;;;;;;5050469;28;20033;-55
2022/05/04 00:39:33;;;;;;;4.32;2.75;;;256.20;2252.80;;;;;;5050225;28;20021;-55
2022/05/04 00:42:25;;;;;;;5.45;2.60;;;256.10;2252.80;;;;;;5050485;28;20025;-56
2022/05/04 00:44:51;;;;;;;4.68;2.30;;;256.00;2252.80;;;;;;5046492;28;20033;-56
2022/05/04 00:47:19;;;;;;;4.60;2.42;;;231.30;2252.80;;;;;;5050122;28;20104;-55
2022/05/04 00:49:47;;;;;;;4.95;2.78;;;256.00;2252.80;;;;;;5050140;28;20040;-56
2022/05/04 00:52:13;;;;;;;5.57;2.58;;;256.10;2252.80;;;;;;5050233;28;20083;-55
2022/05/04 00:54:42;;;;;;;5.25;2.53;;;256.20;2252.80;;;;;;5050479;28;20025;-55
2022/05/04 00:57:08;;;;;;;4.53;2.72;;;256.20;2252.80;;;;;;5050324;28;20027;-55
2022/05/04 00:59:37;;;;;;;4.72;2.40;;;256.10;2252.80;;;;;;5050065;28;20025;-54
2022/05/04 01:02:03;;;;;;;4.05;2.40;;;231.30;2252.80;;;;;;5049795;28;20017;-56
2022/05/04 01:04:29;;;;;;;5.25;2.58;;;231.30;2252.80;;;;;;5050244;28;20029;-56
2022/05/04 01:06:55;;;;;;;3.78;2.30;;;256.10;2252.80;;;;;;5050075;28;20510;-55
2022/05/04 01:09:21;;;;;;;6.22;2.78;;;256.30;2252.80;;;;;;5049837;28;20029;-54
2022/05/04 01:11:47;;;;;;;5.68;2.33;;;256.30;2252.80;;;;;;5050044;28;20033;-55
2022/05/04 01:14:14;;;;;;;4.15;2.47;;;256.30;2252.80;;;;;;5050181;28;20104;-54
2022/05/04 01:16:43;;;;;;;4.95;2.40;;;256.10;2252.80;;;;;;5049720;28;20108;-54
2022/05/04 01:19:10;;;;;;;4.68;2.40;;;256.10;2252.80;;;;;;5049826;28;20025;-56
2022/05/04 01:21:36;;;;;;;4.03;2.42;;;256.20;2252.80;;;;;;5049960;28;20025;-56
2022/05/04 01:24:02;;;;;;;4.40;2.55;;;256.20;2252.80;;;;;;5049931;28;20032;-55
2022/05/04 01:26:28;;;;;;;4.28;2.30;;;256.20;2252.80;;;;;;5049964;28;20494;-57
2022/05/04 01:28:54;;;;;;;5.15;2.80;;;256.20;2252.80;;;;;;5049796;28;20021;-55
2022/05/04 01:31:20;;;;;;;4.35;2.80;;;256.20;2252.80;;;;;;5049614;28;20438;-56
2022/05/04 01:33:45;;;;;;;4.75;2.35;;;256.20;2252.80;;;;;;5049990;28;20371;-54
2022/05/04 01:36:11;;;;;;;6.60;3.40;;;256.20;2252.80;;;;;;5049887;28;20049;-55
2022/05/04 01:38:37;;;;;;;4.25;2.50;;;256.10;2252.80;;;;;;5049722;28;20096;-56
2022/05/04 01:41:03;;;;;;;3.13;2.10;;;256.00;2252.80;;;;;;5049691;28;20029;-56
2022/05/04 01:43:30;;;;;;;5.18;2.75;;;256.10;2252.80;;;;;;5049868;28;20025;-54
2022/05/04 01:45:56;;;;;;;3.13;2.00;;;256.00;2252.80;;;;;;5049971;28;20048;-56
2022/05/04 01:48:23;;;;;;;4.10;2.00;;;256.00;2252.80;;;;;;5052536;28;20550;-56
2022/05/04 01:50:49;;;;;;;3.90;1.85;;;231.30;2252.80;;;;;;5053751;28;20471;-55
2022/05/04 01:53:15;;;;;;;4.13;2.20;;;231.30;2252.80;;;;;;5053725;28;20063;-54
2022/05/04 01:55:41;;;;;;;3.42;1.90;;;231.30;2252.80;;;;;;5053386;28;20029;-56
2022/05/04 01:58:07;;;;;;;3.42;2.28;;;256.00;2252.80;;;;;;5053540;28;20025;-55
2022/05/04 02:00:33;;;;;;;5.43;2.42;;;256.00;2252.80;;;;;;5053281;28;20478;-55
2022/05/04 02:03:00;;;;;;;4.82;2.47;;;231.30;2252.80;;;;;;5053267;28;20021;-55
2022/05/04 02:05:27;;;;;;;4.22;2.50;;;231.30;2252.80;;;;;;5053524;28;20108;-55
2022/05/04 02:07:54;;;;;;;3.85;2.28;;;231.30;2252.80;;;;;;5052991;28;20116;-54
2022/05/04 02:10:19;;;;;;;3.42;1.88;;;231.30;2252.80;;;;;;5053265;28;20105;-56
2022/05/04 02:12:45;;;;;;;4.80;2.42;;;231.10;2252.80;;;;;;5053748;28;20120;-56
2022/05/04 02:15:11;;;;;;;3.17;2.35;;;231.20;2252.80;;;;;;5053320;28;20475;-56
2022/05/04 02:17:39;;;;;;;3.50;1.98;;;231.00;2252.80;;;;;;5053017;28;20028;-56
2022/05/04 02:20:05;;;;;;;4.05;2.05;;;231.00;2252.80;;;;;;5053001;28;20067;-56
2022/05/04 02:22:31;;;;;;;4.05;2.30;;;231.10;2252.80;;;;;;5053024;28;20028;-55
2022/05/04 02:24:57;;;;;;;4.63;2.35;;;231.10;2252.80;;;;;;5053240;28;20060;-56
2022/05/04 02:27:23;;;;;;;6.68;2.78;;;231.20;2252.80;;;;;;5052782;28;20123;-56
2022/05/04 02:29:49;;;;;;;3.40;2.03;;;231.20;2252.80;;;;;;5052936;28;20025;-55
2022/05/04 02:32:15;;;;;;;3.50;2.10;;;231.20;2252.80;;;;;;5052533;28;20039;-57
2022/05/04 02:40:10;;;;;;;4.20;2.45;;;231.20;2252.80;;;;;;5053087;28;20248;-55
2022/05/04 02:42:36;;;;;;;3.22;1.67;;;231.30;2252.80;;;;;;5052690;28;20044;-56
2022/05/04 02:45:05;;;;;;;3.17;1.65;;;231.20;2252.80;;;;;;5052478;28;20021;-56
2022/05/04 02:47:31;;;;;;;4.72;2.20;;;231.20;2252.80;;;;;;5052136;28;20048;-55
2022/05/04 02:49:57;;;;;;;3.22;2.10;;;231.20;2252.80;;;;;;5052396;28;20037;-56
2022/05/04 02:52:23;;;;;;;3.33;2.05;;;231.00;2252.80;;;;;;5052397;28;20025;-53
2022/05/04 02:54:48;;;;;;;3.45;2.22;;;230.90;2252.80;;;;;;5052469;28;20025;-55
2022/05/04 02:57:14;;;;;;;5.63;2.78;;;230.70;2252.80;;;;;;5052049;28;20025;-56
2022/05/04 02:59:40;;;;;;;4.20;2.15;;;230.60;2252.80;;;;;;5052353;28;20059;-55
2022/05/04 03:04:50;;;;;;;3.25;1.88;;;230.60;2252.80;;;;;;5052569;28;20037;-56
2022/05/04 03:07:15;;;;;;;3.50;2.10;;;230.60;2252.80;;;;;;5052199;28;20071;-56
2022/05/04 03:09:41;;;;;;;4.22;2.10;;;230.70;2252.80;;;;;;5052137;28;20041;-56
2022/05/04 03:12:07;;;;;;;3.83;1.77;;;230.70;2252.80;;;;;;5052164;28;20538;-56
2022/05/04 03:14:33;;;;;;;4.57;2.55;;;230.80;2252.80;;;;;;5051908;28;20025;-56
2022/05/04 03:16:59;;;;;;;2.95;1.73;;;230.80;2252.80;;;;;;5052077;28;20498;-56
2022/05/04 03:19:25;;;;;;;7.85;2.38;;;230.80;2252.80;;;;;;5051872;28;20025;-54
2022/05/04 03:21:52;;;;;;;4.35;2.17;;;230.80;2252.80;;;;;;5051980;28;20016;-56
2022/05/04 03:24:18;;;;;;;3.95;2.35;;;230.80;2252.80;;;;;;5051993;28;20390;-55
2022/05/04 03:26:44;;;;;;;4.90;1.90;;;230.80;2252.80;;;;;;5051745;28;20033;-55
2022/05/04 03:29:10;;;;;;;3.58;2.35;;;230.90;2252.80;;;;;;5051798;28;20032;-56
2022/05/04 03:31:36;;;;;;;3.55;2.13;;;230.80;2252.80;;;;;;5051598;28;20032;-55
2022/05/04 03:34:02;;;;;;;3.63;2.15;;;230.80;2252.80;;;;;;5051554;28;20021;-56
2022/05/04 03:36:28;;;;;;;2.63;1.85;;;230.80;2252.80;;;;;;5051620;28;20439;-54
2022/05/04 03:38:54;;;;;;;4.53;2.40;;;230.80;2252.80;;;;;;5051571;28;20025;-55
2022/05/04 03:41:21;;;;;;;3.30;2.08;;;230.80;2252.80;;;;;;5051564;28;20572;-55
2022/05/04 03:43:47;;;;;;;7.60;2.63;;;230.90;2252.80;;;;;;5051532;28;20029;-56
2022/05/04 03:46:23;;;;;;;3.03;1.85;;;230.80;2252.80;;;;;;5051420;28;20104;-56
2022/05/04 03:48:51;;;;;;;3.95;3.15;;;230.90;2252.80;;;;;;5051337;28;20037;-56
2022/05/04 03:51:21;;;;;;;4.80;2.13;;;231.10;2252.80;;;;;;5051404;28;20104;-56
2022/05/04 03:53:48;;;;;;;3.50;2.15;;;231.10;2252.80;;;;;;5051456;28;20025;-56
2022/05/04 03:56:14;;;;;;;3.80;2.65;;;231.20;2252.80;;;;;;5051460;28;20028;-55
2022/05/04 03:58:41;;;;;;;5.28;2.72;;;231.30;2252.80;;;;;;5051071;28;20028;-53
2022/05/04 04:01:07;;;;;;;4.28;3.03;;;256.00;2252.80;;;;;;5051450;28;20025;-55
2022/05/04 04:03:32;;;;;;;5.03;2.83;;;256.10;2252.80;;;;;;5051087;28;20383;-53
2022/05/04 04:05:59;;;;;;;4.68;2.42;;;256.20;2252.80;;;;;;5050863;28;20503;-55
2022/05/04 04:08:25;;;;;;;4.95;2.47;;;256.20;2252.80;;;;;;5050643;28;20442;-55
2022/05/04 04:10:51;;;;;;;5.97;3.00;;;256.00;2252.80;;;;;;5049991;28;20090;-56
2022/05/04 04:13:17;;;;;;;5.20;2.38;;;231.20;2252.80;;;;;;5051081;28;20108;-55
2022/05/04 04:15:43;;;;;;;9.18;3.17;;;231.20;2252.80;;;;;;5051057;28;20032;-55
2022/05/04 04:18:09;;;;;;;4.15;2.60;;;231.20;2252.80;;;;;;5050935;28;20032;-55
2022/05/04 04:23:20;;;;;;;3.80;2.10;;;256.00;2252.80;;;;;;5050608;28;20489;-54
2022/05/04 04:25:46;;;;;;;5.22;2.50;;;256.40;2252.80;;;;;;5050795;28;20025;-56
2022/05/04 04:28:12;;;;;;;3.78;2.25;;;256.60;2252.80;;;;;;5050741;28;20025;-54
2022/05/04 04:30:39;;;;;;;5.30;2.80;;;256.80;2252.80;;;;;;5050780;28;20036;-53
2022/05/04 04:33:06;;;;;;;2.67;1.88;;;256.90;2252.80;;;;;;5050283;28;20027;-54
2022/05/04 04:35:33;;;;;;;3.55;2.00;;;256.90;2252.80;;;;;;5050342;28;20091;-54
2022/05/04 04:37:59;;;;;;;4.43;2.08;;;256.90;2252.80;;;;;;5050544;28;20021;-55
2022/05/04 04:40:25;;;;;;;4.90;2.15;;;281.60;2278.40;;;;;;5050371;28;20529;-52
2022/05/04 04:42:51;;;;;;;3.40;2.20;;;281.70;2278.40;;;;;;5050276;28;20100;-56
2022/05/04 04:45:20;;;;;;;2.80;2.10;;;281.70;2278.40;;;;;;5050543;28;20478;-56
2022/05/04 04:47:46;;;;;;;3.58;2.50;;;281.80;2278.40;;;;;;5050374;28;20040;-56
2022/05/04 04:50:12;;;;;;;3.50;2.10;;;281.90;2278.40;;;;;;5050141;28;20048;-56
2022/05/04 04:52:38;;;;;;;2.17;1.88;;;359.20;2329.60;;;;;;5050366;28;20020;-56
2022/05/04 04:55:05;;;;;;;3.63;2.55;;;461.20;1894.40;;;;;;5050019;28;20537;-55
2022/05/04 04:57:32;;;;;;;2.97;2.05;;;487.20;1715.20;;;;;;5050228;28;20029;-54
2022/05/04 04:59:58;;;;;;;3.63;2.40;;;512.00;1664.00;;;;;;5050420;28;20387;-58
2022/05/04 05:02:23;;;;;;;3.78;2.63;;;538.50;1536.00;;;;;;5050001;28;20086;-55
2022/05/04 05:04:49;;;;;;;4.07;2.70;;;589.10;1459.20;;;;;;5050124;28;20020;-56
2022/05/04 05:07:15;;;;;;;4.30;2.30;;;640.00;1356.80;;;;;;5049971;28;20128;-56
2022/05/04 05:09:40;;;;;;;3.53;2.83;;;665.90;1280.00;;;;;;5049722;28;20021;-57
2022/05/04 05:12:07;;;;;;;3.10;2.50;;;691.40;1203.20;;;;;;5049993;28;20061;-56
2022/05/04 05:17:17;;;;;;;3.40;2.55;;;717.30;1152.00;;;;;;5049949;28;20119;-58
2022/05/04 05:19:43;;;;;;;3.75;3.13;;;742.80;1100.80;;;;;;5049845;28;20052;-58
2022/05/04 05:22:09;;;;;;;3.97;3.05;;;743.10;1075.20;;;;;;5049856;28;20060;-57
2022/05/04 05:24:35;;;;;;;4.43;3.30;;;768.90;1024.00;;;;;;5049935;28;20025;-56
2022/05/04 05:27:01;;;;;;;4.57;3.53;;;819.40;998.40;;;;;;5049655;28;20036;-57
2022/05/04 05:29:26;;;;;;;5.85;3.20;;;794.20;998.40;;;;;;5049769;28;20033;-57
2022/05/04 05:31:52;;;;;;;3.50;3.20;;;768.90;1024.00;;;;;;5049513;28;20029;-56
2022/05/04 05:34:18;;;;;;;4.45;3.83;;;794.20;998.40;;;;;;5049940;28;20025;-57
2022/05/04 05:36:44;;;;;;;5.00;3.47;;;819.80;998.40;;;;;;5049752;28;20036;-57
2022/05/04 05:39:10;;;;;;;4.45;4.05;;;820.00;972.80;;;;;;5049577;28;20110;-57
2022/05/04 05:41:36;;;;;;;4.55;4.15;;;819.80;972.80;;;;;;5049696;28;20033;-57
2022/05/04 05:44:02;;;;;;;4.78;4.38;;;845.20;947.20;;;;;;5049788;28;20025;-57
2022/05/04 05:46:29;;;;;;;5.40;5.00;;;870.80;921.60;;;;;;5049660;28;20025;-57
2022/05/04 05:48:55;;;;;;;5.43;4.95;;;871.20;896.00;;;;;;5049476;28;20079;-57
2022/05/04 05:51:20;;;;;;;9.88;9.18;;;896.50;870.40;;;;;;5049336;28;20029;-57
2022/05/04 05:53:46;;;;;;;7.18;6.60;;;896.50;870.40;;;;;;5049649;28;20453;-57
2022/05/04 05:56:12;;;;;;;12.98;12.07;;;921.80;896.00;;;;;;5049614;28;20029;-57
2022/05/04 05:58:37;;;;;;;10.02;9.38;;;947.60;844.80;;;;;;5049653;28;20052;-57
2022/05/04 06:01:03;;;;;;;8.85;8.18;;;947.20;870.40;;;;;;5049574;28;20029;-57
2022/05/04 06:03:29;;;;;;;8.23;7.63;;;947.40;844.80;;;;;;5049775;28;20096;-57
2022/05/04 06:05:55;;;;;;;7.43;6.82;;;947.30;870.40;;;;;;5049561;28;20095;-57
2022/05/04 06:08:21;;;;;;;6.60;6.05;;;947.60;870.40;;;;;;5049341;28;20040;-58
2022/05/04 06:10:47;;;;;;;5.90;5.40;;;948.00;844.80;;;;;;5049532;28;20062;-58
2022/05/04 06:13:13;;;;;;;6.45;5.95;;;947.80;844.80;;;;;;5049659;28;20430;-58
2022/05/04 06:15:39;;;;;;;6.45;5.95;;;947.60;844.80;;;;;;5049796;28;20107;-57
2022/05/04 06:18:04;;;;;;;6.45;5.95;;;972.90;844.80;;;;;;5049259;28;20033;-57
2022/05/04 06:20:31;;;;;;;8.05;7.47;;;973.50;819.20;;;;;;5049328;28;20029;-58
2022/05/04 06:22:57;;;;;;;6.88;6.38;;;1024.00;768.00;;;;;;5049557;28;20021;-58
2022/05/04 06:25:23;;;;;;;16.50;15.40;;;1049.90;793.60;;;;;;5049162;28;20029;-58
2022/05/04 06:27:48;;;;;;;8.68;7.97;;;1024.30;793.60;;;;;;5049414;28;20379;-58
2022/05/04 06:35:43;;;;;;;8.68;8.07;;;1050.10;742.40;;;;;;5053135;28;20078;-58
2022/05/04 06:38:10;;;;;;;8.55;7.95;;;1075.60;691.20;;;;;;5052749;28;20108;-57
2022/05/04 06:40:37;;;;;;;9.38;8.50;;;999.10;793.60;;;;;;5052820;28;20040;-57
2022/05/04 06:43:03;;;;;;;9.32;8.52;;;998.70;793.60;;;;;;5052746;28;20391;-58
2022/05/04 06:45:29;;;;;;;8.57;7.88;;;998.60;793.60;;;;;;5052755;28;20036;-58
2022/05/04 06:47:54;;;;;;;10.32;9.43;;;973.10;819.20;;;;;;5052098;28;20029;-60
2022/05/04 06:50:20;;;;;;;9.18;8.48;;;973.70;768.00;;;;;;5052336;28;20048;-58
2022/05/04 06:52:46;;;;;;;9.77;8.88;;;999.30;768.00;;;;;;5052712;28;20021;-57
2022/05/04 06:55:12;;;;;;;8.60;7.97;;;1024.20;742.40;;;;;;5052445;28;20378;-57
2022/05/04 06:57:37;;;;;;;9.05;8.35;;;1024.90;716.80;;;;;;5034583;28;20461;-58
2022/05/04 07:00:04;;;;;;;8.90;8.18;;;973.30;793.60;;;;;;5052558;28;20087;-58
2022/05/04 07:02:33;;;;;;;9.27;8.52;;;973.00;819.20;;;;;;5052507;28;20360;-58
2022/05/04 07:05:03;;;;;;;8.18;7.57;;;999.10;742.40;;;;;;5052565;28;20367;-57
2022/05/04 07:07:29;;;;;;;10.20;9.25;;;1024.60;742.40;;;;;;5052199;28;20045;-57
2022/05/04 07:09:55;;;;;;;9.75;8.85;;;973.70;793.60;;;;;;5052474;28;20527;-58
2022/05/04 07:12:21;;;;;;;10.15;9.45;;;998.80;768.00;;;;;;5052157;28;20116;-58
2022/05/04 07:14:47;;;;;;;9.57;8.90;;;998.50;793.60;;;;;;5052377;28;20091;-58
2022/05/04 07:17:13;;;;;;;10.52;9.73;;;1024.90;742.40;;;;;;5051928;28;20502;-58
2022/05/04 07:19:39;;;;;;;10.43;9.57;;;999.10;819.20;;;;;;5052149;28;20036;-58
2022/05/04 07:22:05;;;;;;;10.57;9.75;;;1024.10;793.60;;;;;;5051904;28;20032;-59
2022/05/04 07:24:31;;;;;;;10.05;9.15;;;998.60;819.20;;;;;;5051875;28;20116;-58
2022/05/04 07:26:56;;;;;;;10.98;9.98;;;1024.70;742.40;;;;;;5052013;28;20463;-59
2022/05/04 07:29:22;;;;;;;10.63;9.82;;;973.70;819.20;;;;;;5051930;28;20028;-59
2022/05/04 07:31:48;;;;;;;8.93;8.23;;;973.10;844.80;;;;;;5051893;28;20123;-58
2022/05/04 07:34:18;;;;;;;9.82;9.02;;;973.70;819.20;;;;;;5051780;28;20029;-60
2022/05/04 07:36:44;;;;;;;11.15;10.15;;;948.00;819.20;;;;;;5051717;28;20202;-58
2022/05/04 07:44:40;;;;;;;9.27;8.68;;;999.20;793.60;;;;;;5050644;28;20032;-59
2022/05/04 07:47:07;;;;;;;8.57;7.75;;;947.60;844.80;;;;;;5051480;28;20033;-58
2022/05/04 07:49:32;;;;;;;8.20;7.53;;;948.10;819.20;;;;;;5051188;28;20032;-59
2022/05/04 07:51:58;;;;;;;9.57;6.97;;;998.80;793.60;;;;;;5051627;28;20033;-58
2022/05/04 07:54:24;;;;;;;8.77;8.18;;;1024.20;742.40;;;;;;5051297;28;20100;-59
2022/05/04 07:56:49;;;;;;;8.18;7.68;;;1075.30;691.20;;;;;;5051602;28;20039;-57
2022/05/04 07:59:15;;;;;;;7.32;6.72;;;1024.90;716.80;;;;;;5051461;28;20053;-59
2022/05/04 08:04:27;;;;;;;7.78;7.28;;;1050.20;716.80;;;;;;4989998;28;20035;-57
2022/05/04 08:06:52;;;;;;;9.23;8.63;;;998.80;768.00;;;;;;4989643;28;20030;-58
2022/05/04 08:09:18;;;;;;;8.13;7.57;;;998.60;742.40;;;;;;4989846;28;20088;-57
2022/05/04 08:11:45;;;;;;;7.25;6.75;;;973.30;742.40;;;;;;4989675;28;20038;-57
2022/05/04 08:14:12;;;;;;;7.47;6.97;;;1024.20;691.20;;;;;;4989530;28;20030;-58
2022/05/04 08:16:39;;;;;;;7.68;6.97;;;973.10;742.40;;;;;;4973169;28;20093;-55
2022/05/04 08:19:06;;;;;;;7.07;6.57;;;947.60;742.40;;;;;;4989361;28;20034;-57
2022/05/04 08:21:32;;;;;;;6.30;5.72;;;947.30;742.40;;;;;;4989396;28;20489;-57
2022/05/04 08:23:59;;;;;;;6.78;6.38;;;921.70;793.60;;;;;;4989706;28;20035;-57
2022/05/04 08:26:25;;;;;;;6.35;5.90;;;947.50;742.40;;;;;;4989577;28;20038;-57
2022/05/04 08:28:51;;;;;;;5.78;5.38;;;870.70;819.20;;;;;;4989332;28;20042;-57
2022/05/04 08:31:21;;;;;;;3.80;3.50;;;794.20;844.80;;;;;;4989442;28;20508;-57
2022/05/04 08:33:48;;;;;;;2.80;2.50;;;743.30;896.00;;;;;;4989467;28;20022;-56
2022/05/04 08:36:14;;;;;;;3.13;2.60;;;717.30;921.60;;;;;;4989058;28;20045;-57
2022/05/04 08:38:40;;;;;;;3.30;2.72;;;691.90;896.00;;;;;;4989344;28;20030;-58
2022/05/04 08:41:06;;;;;;;3.40;2.60;;;717.20;896.00;;;;;;5009121;28;20037;-58
2022/05/04 08:43:33;;;;;;;2.85;2.45;;;691.50;921.60;;;;;;5050442;28;20108;-56
2022/05/04 08:46:01;;;;;;;3.10;2.58;;;691.30;921.60;;;;;;5050441;28;20033;-56
2022/05/04 08:48:27;;;;;;;2.72;2.20;;;691.30;947.20;;;;;;5050214;28;20394;-57
2022/05/04 08:50:54;;;;;;;2.85;2.45;;;665.90;972.80;;;;;;5050173;28;20037;-57
2022/05/04 08:53:20;;;;;;;3.60;2.65;;;665.70;972.80;;;;;;5050242;28;20025;-56
2022/05/04 08:55:47;;;;;;;3.17;2.60;;;666.00;998.40;;;;;;5050014;28;20035;-56
2022/05/04 08:58:13;;;;;;;3.05;2.20;;;665.70;972.80;;;;;;5050229;28;20024;-56
2022/05/04 09:00:40;;;;;;;4.25;2.40;;;665.70;972.80;;;;;;5050393;28;20471;-56
2022/05/04 09:03:07;;;;;;;3.22;2.53;;;666.00;972.80;;;;;;5050236;28;20111;-56
2022/05/04 09:05:39;;;;;;;3.10;2.40;;;665.90;998.40;;;;;;5050260;28;20100;-56
2022/05/04 09:08:05;;;;;;;5.70;2.65;;;640.70;998.40;;;;;;5049862;28;20049;-58
2022/05/04 09:10:36;;;;;;;3.80;2.20;;;666.10;1024.00;;;;;;5050302;28;20059;-57
2022/05/04 09:13:03;;;;;;;3.15;2.50;;;640.90;998.40;;;;;;5049824;28;20025;-57
2022/05/04 09:15:34;;;;;;;3.05;2.38;;;665.60;1024.00;;;;;;5032500;28;20075;-56
2022/05/04 09:18:05;;;;;;;3.92;2.60;;;640.70;1049.60;;;;;;5049895;28;20036;-57
2022/05/04 09:20:48;;;;;;;4.20;2.65;;;665.60;1024.00;;;;;;5049363;28;20037;-57
2022/05/04 09:23:23;;;;;;;3.33;2.40;;;640.90;1024.00;;;;;;5050047;28;20025;-58
2022/05/04 09:25:59;;;;;;;4.90;2.70;;;665.60;1049.60;;;;;;5050039;28;20467;-56
2022/05/04 09:28:27;;;;;;;3.35;2.30;;;640.50;1024.00;;;;;;5049761;28;20025;-56
2022/05/04 09:31:04;;;;;;;5.00;3.25;;;640.60;1049.60;;;;;;5049646;28;20112;-57
2022/05/04 09:33:33;;;;;;;2.40;2.03;;;640.40;1024.00;;;;;;5049608;28;20083;-57
2022/05/04 09:36:01;;;;;;;4.25;2.78;;;615.20;1075.20;;;;;;5049862;28;20080;-55
2022/05/04 09:46:50;;;;;;;4.45;2.20;;;615.30;1049.60;;;;;;5049868;28;20498;-56
2022/05/04 09:49:19;;;;;;;3.45;2.25;;;615.10;1100.80;;;;;;5049615;28;20021;-56
2022/05/04 09:51:55;;;;;;;2.67;2.00;;;615.20;1075.20;;;;;;5049483;28;20033;-59
2022/05/04 09:54:22;;;;;;;3.92;2.40;;;640.20;1075.20;;;;;;5049518;28;20214;-57
2022/05/04 09:56:53;;;;;;;3.15;2.30;;;640.00;1100.80;;;;;;5049585;28;20029;-57
2022/05/04 09:59:21;;;;;;;5.15;2.53;;;640.30;1126.40;;;;;;5049694;28;20116;-56
2022/05/04 10:01:48;;;;;;;3.45;2.42;;;640.20;1100.80;;;;;;5049603;28;20036;-56
2022/05/04 10:04:15;;;;;;;3.00;2.30;;;640.20;1100.80;;;;;;5049520;28;20116;-56
2022/05/04 10:06:41;;;;;;;2.65;1.88;;;640.00;1100.80;;;;;;5049372;28;20395;-57
2022/05/04 10:09:08;;;;;;;3.70;2.38;;;615.20;1100.80;;;;;;5052465;28;20033;-57
2022/05/04 10:11:35;;;;;;;3.13;2.50;;;640.10;1126.40;;;;;;5053146;28;20033;-56
2022/05/04 10:14:08;;;;;;;2.70;2.05;;;615.20;1126.40;;;;;;5053293;28;20056;-57
2022/05/04 10:16:41;;;;;;;4.10;2.20;;;640.00;1126.40;;;;;;5052920;28;20479;-57
2022/05/04 10:19:13;;;;;;;3.53;2.20;;;615.00;1152.00;;;;;;5053327;28;20390;-57
2022/05/04 10:21:41;;;;;;;3.37;2.30;;;614.80;1152.00;;;;;;5053188;28;20025;-56
2022/05/04 10:24:09;;;;;;;3.13;2.00;;;615.00;1152.00;;;;;;5053240;28;20335;-57
2022/05/04 10:26:36;;;;;;;8.00;2.60;;;615.10;1126.40;;;;;;5053022;28;20024;-56
2022/05/04 10:32:07;;;;;;;6.57;2.67;;;614.80;1152.00;;;;;;5052881;28;20044;-57
2022/05/04 10:34:33;;;;;;;3.25;2.13;;;614.80;1152.00;;;;;;5052959;28;20021;-56
2022/05/04 10:36:59;;;;;;;3.17;2.33;;;614.80;1152.00;;;;;;5052915;28;20025;-56
2022/05/04 10:39:25;;;;;;;3.40;2.50;;;614.90;1152.00;;;;;;5052628;28;20017;-56
2022/05/04 10:41:51;;;;;;;3.38;2.42;;;614.90;1177.60;;;;;;5052606;28;20021;-57
2022/05/04 10:44:17;;;;;;;4.07;2.35;;;614.70;1177.60;;;;;;5052713;28;20068;-56
2022/05/04 10:46:49;;;;;;;3.08;2.20;;;614.80;1177.60;;;;;;5052524;28;20387;-57
2022/05/04 10:49:16;;;;;;;4.30;2.45;;;615.10;1152.00;;;;;;5052587;28;20033;-58
2022/05/04 10:51:46;;;;;;;3.70;2.60;;;615.00;1177.60;;;;;;5052236;28;20128;-56
2022/05/04 10:54:19;;;;;;;2.30;1.85;;;589.70;1177.60;;;;;;5052308;28;20112;-57
2022/05/04 10:56:47;;;;;;;3.25;2.28;;;614.40;1152.00;;;;;;5052620;28;20033;-56
2022/05/04 10:59:24;;;;;;;3.63;2.10;;;614.70;1177.60;;;;;;5052569;28;20033;-57
2022/05/04 11:01:54;;;;;;;4.10;2.60;;;614.80;1177.60;;;;;;5052588;28;20107;-57
2022/05/04 11:04:24;;;;;;;2.92;2.10;;;614.40;1177.60;;;;;;5052459;28;20029;-57
2022/05/04 11:06:52;;;;;;;3.33;2.30;;;614.70;1177.60;;;;;;5052327;28;20049;-56
2022/05/04 11:09:20;;;;;;;3.75;1.85;;;614.80;1152.00;;;;;;5052466;28;20028;-56
2022/05/04 11:11:48;;;;;;;3.65;2.40;;;614.90;1177.60;;;;;;5052428;28;20036;-56
2022/05/04 11:14:16;;;;;;;3.65;2.47;;;615.20;1177.60;;;;;;5052216;28;20387;-58
2022/05/04 11:16:43;;;;;;;4.30;2.60;;;615.10;1152.00;;;;;;5051933;28;20131;-58
2022/05/04 11:19:12;;;;;;;3.40;2.53;;;615.00;1152.00;;;;;;5051805;28;20025;-56
2022/05/04 11:21:38;;;;;;;3.25;2.55;;;614.70;1152.00;;;;;;5052019;28;20367;-57
2022/05/04 11:24:06;;;;;;;6.65;2.95;;;614.80;1177.60;;;;;;5051965;28;20479;-59
2022/05/04 11:26:36;;;;;;;5.50;3.15;;;614.70;1177.60;;;;;;5051802;28;20100;-56
2022/05/04 11:29:26;;;;;;;3.90;2.50;;;614.90;1203.20;;;;;;5051768;28;20464;-56
2022/05/04 11:31:57;;;;;;;3.67;2.80;;;614.90;1126.40;;;;;;5050935;28;20044;-55
2022/05/04 11:34:25;;;;;;;5.53;2.80;;;614.70;1177.60;;;;;;5047830;28;20029;-56
2022/05/04 11:36:53;;;;;;;5.03;2.63;;;614.70;1152.00;;;;;;5031730;28;20364;-59
2022/05/04 11:39:21;;;;;;;4.43;2.90;;;614.50;1177.60;;;;;;5031893;28;20025;-55
2022/05/04 11:41:50;;;;;;;3.88;2.85;;;589.60;1177.60;;;;;;5031844;28;20041;-56
2022/05/04 11:44:18;;;;;;;3.22;2.22;;;614.40;1177.60;;;;;;5031683;28;20018;-56
2022/05/04 11:46:48;;;;;;;3.70;2.40;;;614.40;1177.60;;;;;;5031383;28;20037;-56
2022/05/04 11:49:15;;;;;;;3.85;2.83;;;614.50;1177.60;;;;;;5014009;28;20025;-56
2022/05/04 11:51:41;;;;;;;3.35;2.42;;;614.70;1177.60;;;;;;5031090;28;20080;-57
2022/05/04 11:54:07;;;;;;;2.80;2.28;;;614.60;1152.00;;;;;;5031348;28;20029;-56
2022/05/04 11:56:36;;;;;;;6.07;2.67;;;614.70;1177.60;;;;;;5031308;28;20079;-55
2022/05/04 11:59:03;;;;;;;2.92;2.20;;;615.10;1203.20;;;;;;5031211;28;20013;-56
2022/05/04 12:01:29;;;;;;;3.97;2.33;;;615.30;1177.60;;;;;;5031566;28;20041;-56
2022/05/04 12:03:56;;;;;;;3.17;2.30;;;640.10;1152.00;;;;;;5031276;28;20080;-56
2022/05/04 12:06:22;;;;;;;3.63;2.40;;;640.10;1177.60;;;;;;5031182;28;20455;-57
2022/05/04 12:08:49;;;;;;;4.38;2.78;;;640.20;1203.20;;;;;;5049756;28;20080;-56
2022/05/04 12:11:16;;;;;;;3.40;2.80;;;640.00;1152.00;;;;;;5051113;28;20040;-56
2022/05/04 12:13:43;;;;;;;2.72;2.25;;;615.00;1152.00;;;;;;5051200;28;20052;-56
2022/05/04 12:16:11;;;;;;;3.28;2.35;;;615.30;1177.60;;;;;;5050987;28;20031;-56
2022/05/04 12:18:38;;;;;;;3.80;2.85;;;640.00;1203.20;;;;;;5051033;28;20537;-56
2022/05/04 12:21:12;;;;;;;3.40;2.30;;;640.10;1152.00;;;;;;5050685;28;20089;-56
2022/05/04 12:23:47;;;;;;;2.75;1.90;;;640.10;1152.00;;;;;;5050934;28;20029;-56
2022/05/04 12:26:14;;;;;;;3.65;2.40;;;640.00;1152.00;;;;;;5051026;28;20079;-56
2022/05/04 12:28:41;;;;;;;3.90;2.30;;;640.00;1152.00;;;;;;5050920;28;20017;-57
2022/05/04 12:33:57;;;;;;;3.63;2.40;;;640.30;1152.00;;;;;;5050910;28;20036;-56
2022/05/04 12:36:23;;;;;;;4.05;2.47;;;615.30;1152.00;;;;;;5050522;28;20024;-56
2022/05/04 12:38:51;;;;;;;3.05;2.25;;;615.00;1177.60;;;;;;5050644;28;20021;-57
2022/05/04 12:41:19;;;;;;;6.63;3.05;;;640.00;1228.80;;;;;;5050593;28;20108;-57
2022/05/04 12:43:47;;;;;;;4.13;2.40;;;640.10;1203.20;;;;;;5050590;28;20025;-57
2022/05/04 12:46:17;;;;;;;4.88;3.03;;;615.10;1177.60;;;;;;5050634;28;20036;-57
2022/05/04 12:48:45;;;;;;;6.95;2.78;;;615.10;1177.60;;;;;;5050105;28;20387;-56
2022/05/04 12:51:14;;;;;;;3.20;2.33;;;614.80;1177.60;;;;;;5049977;28;20036;-56
2022/05/04 12:53:41;;;;;;;3.15;2.38;;;615.20;1177.60;;;;;;5050309;28;20024;-56
2022/05/04 12:58:54;;;;;;;5.82;2.85;;;614.80;1177.60;;;;;;5050389;28;20032;-58
2022/05/04 13:01:24;;;;;;;4.53;2.50;;;615.00;1203.20;;;;;;5050259;28;20025;-57